Time;durP1;ratioP1;P1;durP2;ratioP2;P2;SDS_P1;SDS_P2;PMS_P1;PMS_P2;Temp;Humidity;BMP_temperature;BMP_pressure;BME280_temperature;BME280_humidity;BME280_pressure;Samples;Min_cycle;Max_cycle;Signal;HPM_P1;HPM_P2
2023/10/03 00:02:00;;;;;;;7.50;2.92;;;;;;;;;;4943065;28;20039;-70
2023/10/03 00:04:26;;;;;;;8.25;2.97;;;;;;;;;;4927969;28;20050;-70
2023/10/03 00:06:53;;;;;;;7.82;2.90;;;;;;;;;;4941256;28;20520;-70
2023/10/03 00:09:19;;;;;;;11.05;2.83;;;;;;;;;;4929621;28;20055;-70
2023/10/03 00:11:45;;;;;;;7.60;2.92;;;;;;;;;;4926859;28;20035;-70
2023/10/03 00:14:11;;;;;;;7.57;3.13;;;;;;;;;;4928557;28;20159;-70
2023/10/03 00:16:39;;;;;;;9.05;3.17;;;;;;;;;;4930292;28;20031;-70
2023/10/03 00:19:05;;;;;;;8.20;3.50;;;;;;;;;;4930526;28;20178;-71
2023/10/03 00:21:33;;;;;;;7.60;3.15;;;;;;;;;;4946645;28;20026;-71
2023/10/03 00:24:01;;;;;;;8.55;3.35;;;;;;;;;;4933382;28;20133;-71
2023/10/03 00:26:28;;;;;;;7.75;3.05;;;;;;;;;;4945365;28;20355;-71
2023/10/03 00:28:56;;;;;;;8.40;2.92;;;;;;;;;;4938923;28;20432;-71
2023/10/03 00:31:22;;;;;;;8.40;2.97;;;;;;;;;;4930359;28;20474;-71
2023/10/03 00:33:49;;;;;;;7.25;2.78;;;;;;;;;;4929535;28;20097;-72
2023/10/03 00:36:23;;;;;;;7.80;3.10;;;;;;;;;;4928462;28;20031;-72
2023/10/03 00:38:50;;;;;;;7.35;2.90;;;;;;;;;;4923639;28;20237;-72
2023/10/03 00:41:19;;;;;;;8.00;3.28;;;;;;;;;;4926776;28;20031;-70
2023/10/03 00:44:00;;;;;;;7.90;3.08;;;;;;;;;;4941233;28;20069;-72
2023/10/03 00:46:29;;;;;;;8.82;3.50;;;;;;;;;;4927976;28;20119;-70
2023/10/03 00:48:56;;;;;;;8.32;3.70;;;;;;;;;;4927044;28;20035;-72
2023/10/03 00:51:22;;;;;;;7.55;2.95;;;;;;;;;;4931591;28;20031;-72
2023/10/03 00:53:55;;;;;;;7.47;3.53;;;;;;;;;;4925262;28;20101;-72
2023/10/03 00:56:22;;;;;;;8.55;3.30;;;;;;;;;;4935141;28;20027;-71
2023/10/03 00:58:48;;;;;;;9.23;3.55;;;;;;;;;;4922228;28;20055;-72
2023/10/03 01:01:15;;;;;;;7.38;3.00;;;;;;;;;;4928149;28;20031;-70
2023/10/03 01:03:41;;;;;;;8.43;3.63;;;;;;;;;;4945536;28;20196;-71
2023/10/03 01:06:12;;;;;;;9.57;3.25;;;;;;;;;;4925609;28;20441;-70
2023/10/03 01:08:39;;;;;;;8.52;3.53;;;;;;;;;;4931399;28;20116;-71
2023/10/03 01:11:15;;;;;;;9.05;3.50;;;;;;;;;;4925531;28;20035;-70
2023/10/03 01:13:41;;;;;;;8.52;3.33;;;;;;;;;;4926483;28;20459;-70
2023/10/03 01:16:08;;;;;;;9.40;3.25;;;;;;;;;;4925956;28;20031;-72
2023/10/03 01:18:37;;;;;;;8.75;3.10;;;;;;;;;;4934745;28;20027;-72
2023/10/03 01:21:06;;;;;;;9.25;3.47;;;;;;;;;;4925341;28;20361;-72
2023/10/03 01:23:36;;;;;;;13.27;3.50;;;;;;;;;;4928848;28;20034;-72
2023/10/03 01:26:04;;;;;;;9.77;2.90;;;;;;;;;;4927955;28;20558;-72
2023/10/03 01:28:31;;;;;;;7.88;3.30;;;;;;;;;;4929538;28;20810;-72
2023/10/03 01:30:57;;;;;;;7.88;3.15;;;;;;;;;;4925920;28;20042;-72
2023/10/03 01:33:26;;;;;;;9.70;3.38;;;;;;;;;;4931115;28;20612;-72
2023/10/03 01:35:56;;;;;;;8.60;3.25;;;;;;;;;;4925164;28;20031;-71
2023/10/03 01:38:28;;;;;;;7.90;3.40;;;;;;;;;;4935991;28;20034;-72
2023/10/03 01:40:58;;;;;;;8.50;3.20;;;;;;;;;;4928847;28;20032;-73
2023/10/03 01:43:24;;;;;;;8.02;3.20;;;;;;;;;;4932696;28;20544;-72
2023/10/03 01:45:52;;;;;;;8.02;3.20;;;;;;;;;;4928371;28;20459;-71
2023/10/03 01:48:18;;;;;;;7.97;3.28;;;;;;;;;;4929295;28;20031;-71
2023/10/03 01:50:44;;;;;;;9.63;3.28;;;;;;;;;;4949061;28;20097;-71
2023/10/03 01:53:11;;;;;;;8.98;3.17;;;;;;;;;;4930094;28;20494;-70
2023/10/03 01:55:38;;;;;;;7.03;2.72;;;;;;;;;;4930901;28;20099;-70
2023/10/03 01:58:05;;;;;;;7.47;2.78;;;;;;;;;;4932337;28;20082;-72
2023/10/03 02:00:36;;;;;;;8.18;3.20;;;;;;;;;;4949224;28;20391;-72
2023/10/03 02:03:07;;;;;;;8.13;3.00;;;;;;;;;;4926549;28;20919;-71
2023/10/03 02:05:34;;;;;;;8.52;2.88;;;;;;;;;;4934951;28;20610;-72
2023/10/03 02:08:10;;;;;;;8.73;2.95;;;;;;;;;;4930077;28;20174;-72
2023/10/03 02:10:39;;;;;;;8.75;3.70;;;;;;;;;;4930129;28;20501;-70
2023/10/03 02:13:14;;;;;;;8.77;3.17;;;;;;;;;;4930276;28;20062;-71
2023/10/03 02:15:50;;;;;;;8.30;2.97;;;;;;;;;;4934285;28;20027;-71
2023/10/03 02:18:18;;;;;;;7.35;3.40;;;;;;;;;;4932778;28;20153;-71
2023/10/03 02:20:51;;;;;;;7.18;3.05;;;;;;;;;;4928312;28;20042;-72
2023/10/03 02:23:26;;;;;;;7.97;3.03;;;;;;;;;;4933274;28;20043;-71
2023/10/03 02:25:54;;;;;;;8.55;3.20;;;;;;;;;;4928227;28;20433;-70
2023/10/03 02:28:20;;;;;;;7.57;2.83;;;;;;;;;;4930406;28;20046;-70
2023/10/03 02:30:48;;;;;;;8.07;3.05;;;;;;;;;;4929118;28;20027;-70
2023/10/03 02:33:15;;;;;;;7.03;2.83;;;;;;;;;;4945495;28;20043;-70
2023/10/03 02:35:42;;;;;;;7.05;3.03;;;;;;;;;;4935246;28;20358;-70
2023/10/03 02:38:12;;;;;;;9.25;3.08;;;;;;;;;;4937991;28;20058;-70
2023/10/03 02:40:40;;;;;;;8.02;3.03;;;;;;;;;;4932637;28;20038;-70
2023/10/03 02:43:06;;;;;;;8.40;2.97;;;;;;;;;;4929912;28;20417;-72
2023/10/03 02:45:32;;;;;;;7.47;2.88;;;;;;;;;;4932860;28;20524;-72
2023/10/03 02:48:07;;;;;;;7.35;3.08;;;;;;;;;;4945521;28;20190;-70
2023/10/03 02:50:34;;;;;;;8.55;3.00;;;;;;;;;;4932095;28;20042;-70
2023/10/03 02:53:12;;;;;;;8.07;3.17;;;;;;;;;;4929174;28;20312;-70
2023/10/03 02:55:38;;;;;;;7.15;2.75;;;;;;;;;;4933813;28;20459;-71
2023/10/03 02:58:05;;;;;;;7.88;2.95;;;;;;;;;;4930299;28;20533;-70
2023/10/03 03:00:33;;;;;;;7.75;2.75;;;;;;;;;;4936547;28;20027;-70
2023/10/03 03:02:59;;;;;;;8.18;2.78;;;;;;;;;;4934000;28;20040;-70
2023/10/03 03:05:35;;;;;;;9.35;3.10;;;;;;;;;;4932673;28;20034;-70
2023/10/03 03:08:08;;;;;;;8.02;2.88;;;;;;;;;;4929127;28;20059;-71
2023/10/03 03:10:34;;;;;;;7.32;2.60;;;;;;;;;;4948370;28;20572;-71
2023/10/03 03:13:26;;;;;;;7.35;2.95;;;;;;;;;;4937950;28;20038;-73
2023/10/03 03:16:15;;;;;;;8.20;2.83;;;;;;;;;;4929008;28;20090;-71
2023/10/03 03:18:41;;;;;;;7.65;2.55;;;;;;;;;;4933072;28;20455;-71
2023/10/03 03:21:14;;;;;;;6.70;2.45;;;;;;;;;;4931232;28;20529;-72
2023/10/03 03:23:49;;;;;;;6.00;2.17;;;;;;;;;;4933047;28;20050;-73
2023/10/03 03:26:17;;;;;;;7.95;2.53;;;;;;;;;;4929375;28;20347;-70
2023/10/03 03:28:44;;;;;;;7.47;2.47;;;;;;;;;;4926200;28;20513;-72
2023/10/03 03:31:26;;;;;;;8.68;2.55;;;;;;;;;;4932453;28;20034;-70
2023/10/03 03:33:53;;;;;;;8.90;2.67;;;;;;;;;;4922856;28;20050;-71
2023/10/03 03:36:20;;;;;;;6.68;2.45;;;;;;;;;;4929635;28;20050;-73
2023/10/03 03:38:49;;;;;;;7.43;2.50;;;;;;;;;;4929239;28;20446;-71
2023/10/03 03:41:16;;;;;;;7.13;2.50;;;;;;;;;;4945856;28;20365;-71
2023/10/03 03:43:43;;;;;;;7.35;2.78;;;;;;;;;;4925108;28;20031;-71
2023/10/03 03:46:10;;;;;;;8.00;2.58;;;;;;;;;;4931493;28;20577;-71
2023/10/03 03:48:36;;;;;;;8.90;2.80;;;;;;;;;;4930664;28;20035;-71
2023/10/03 03:51:06;;;;;;;7.85;2.90;;;;;;;;;;4928774;28;20039;-71
2023/10/03 03:53:33;;;;;;;7.18;2.50;;;;;;;;;;4938263;28;20562;-71
2023/10/03 03:56:11;;;;;;;6.78;2.45;;;;;;;;;;4929498;28;20039;-70
2023/10/03 03:58:40;;;;;;;7.40;2.58;;;;;;;;;;4941991;28;20434;-72
2023/10/03 04:01:28;;;;;;;7.30;2.58;;;;;;;;;;4924661;28;20090;-71
2023/10/03 04:03:57;;;;;;;7.88;2.40;;;;;;;;;;4927321;28;20050;-71
2023/10/03 04:06:24;;;;;;;7.80;2.70;;;;;;;;;;4945264;28;20164;-71
2023/10/03 04:08:50;;;;;;;8.07;2.60;;;;;;;;;;4930193;28;20039;-72
2023/10/03 04:11:16;;;;;;;6.82;2.30;;;;;;;;;;4928541;28;20031;-71
2023/10/03 04:13:55;;;;;;;8.00;2.88;;;;;;;;;;4930545;28;20030;-71
2023/10/03 04:16:22;;;;;;;9.18;3.03;;;;;;;;;;4933654;28;20035;-71
2023/10/03 04:18:51;;;;;;;7.28;2.85;;;;;;;;;;4930333;28;20063;-71
2023/10/03 04:21:17;;;;;;;6.72;2.45;;;;;;;;;;4929834;28;20043;-72
2023/10/03 04:23:47;;;;;;;8.15;2.90;;;;;;;;;;4928314;28;20073;-71
2023/10/03 04:26:14;;;;;;;7.68;2.72;;;;;;;;;;4928893;28;20039;-70
2023/10/03 04:28:40;;;;;;;7.15;2.70;;;;;;;;;;4933020;28;20042;-70
2023/10/03 04:31:07;;;;;;;7.13;2.33;;;;;;;;;;4928153;28;20035;-70
2023/10/03 04:33:33;;;;;;;6.53;2.45;;;;;;;;;;4930225;28;20393;-71
2023/10/03 04:36:04;;;;;;;8.82;2.85;;;;;;;;;;4928779;28;20506;-71
2023/10/03 04:38:31;;;;;;;7.38;2.53;;;;;;;;;;4932589;28;20319;-72
2023/10/03 04:40:58;;;;;;;8.20;2.42;;;;;;;;;;4927201;28;20099;-70
2023/10/03 04:43:27;;;;;;;7.22;2.83;;;;;;;;;;4934987;28;20029;-71
2023/10/03 04:45:53;;;;;;;7.90;2.55;;;;;;;;;;4927167;28;20039;-72
2023/10/03 04:48:19;;;;;;;7.68;2.38;;;;;;;;;;4929596;28;20509;-72
2023/10/03 04:50:45;;;;;;;5.70;2.10;;;;;;;;;;4942625;28;20046;-70
2023/10/03 04:53:14;;;;;;;7.35;2.55;;;;;;;;;;4945304;28;20032;-71
2023/10/03 04:55:44;;;;;;;8.35;2.70;;;;;;;;;;4930667;28;20041;-71
2023/10/03 04:58:10;;;;;;;8.00;2.50;;;;;;;;;;4935264;28;20465;-71
2023/10/03 05:00:37;;;;;;;6.78;2.47;;;;;;;;;;4928221;28;20722;-71
2023/10/03 05:03:04;;;;;;;8.65;2.80;;;;;;;;;;4925232;28;20050;-71
2023/10/03 05:05:32;;;;;;;9.50;2.90;;;;;;;;;;4926205;28;20301;-71
2023/10/03 05:07:58;;;;;;;9.48;2.80;;;;;;;;;;4924848;28;20126;-71
2023/10/03 05:10:25;;;;;;;11.27;3.28;;;;;;;;;;4943991;28;20146;-72
2023/10/03 05:12:52;;;;;;;11.38;3.13;;;;;;;;;;4927716;28;20034;-71
2023/10/03 05:15:20;;;;;;;8.90;2.97;;;;;;;;;;4941056;28;20366;-72
2023/10/03 05:17:47;;;;;;;8.38;2.65;;;;;;;;;;4922294;28;20023;-72
2023/10/03 05:20:14;;;;;;;7.97;2.90;;;;;;;;;;4926937;28;20040;-71
2023/10/03 05:22:40;;;;;;;7.30;2.70;;;;;;;;;;4926818;28;20027;-71
2023/10/03 05:25:11;;;;;;;9.20;3.35;;;;;;;;;;4932659;28;20039;-71
2023/10/03 05:27:37;;;;;;;9.55;2.85;;;;;;;;;;4933316;28;20532;-71
2023/10/03 05:30:05;;;;;;;9.25;3.20;;;;;;;;;;4946654;28;20035;-71
2023/10/03 05:32:35;;;;;;;8.73;3.20;;;;;;;;;;4935349;28;20493;-71
2023/10/03 05:35:01;;;;;;;8.98;3.03;;;;;;;;;;4926743;28;20040;-71
2023/10/03 05:37:27;;;;;;;8.00;2.72;;;;;;;;;;4932383;28;20474;-71
2023/10/03 05:39:53;;;;;;;9.70;3.30;;;;;;;;;;4928922;28;20076;-71
2023/10/03 05:42:20;;;;;;;7.90;3.13;;;;;;;;;;4933389;28;20035;-71
2023/10/03 05:44:46;;;;;;;8.07;3.20;;;;;;;;;;4924629;28;20089;-71
2023/10/03 05:47:13;;;;;;;9.70;3.40;;;;;;;;;;4926722;28;20608;-71
2023/10/03 05:49:39;;;;;;;8.93;3.47;;;;;;;;;;4948707;28;20777;-71
2023/10/03 05:52:06;;;;;;;10.40;3.42;;;;;;;;;;4923247;28;20318;-71
2023/10/03 05:54:32;;;;;;;9.52;3.45;;;;;;;;;;4936459;28;20046;-71
2023/10/03 05:56:58;;;;;;;10.75;3.42;;;;;;;;;;4930915;28;20407;-71
2023/10/03 05:59:27;;;;;;;9.35;3.70;;;;;;;;;;4930010;28;20197;-70
2023/10/03 06:01:53;;;;;;;10.95;3.72;;;;;;;;;;4931494;28;20510;-70
2023/10/03 06:04:19;;;;;;;15.65;3.90;;;;;;;;;;4934902;28;20034;-72
2023/10/03 06:06:46;;;;;;;16.15;4.05;;;;;;;;;;4928427;28;20028;-70
2023/10/03 06:09:12;;;;;;;16.67;4.22;;;;;;;;;;4946904;28;20129;-71
2023/10/03 06:11:39;;;;;;;14.00;4.47;;;;;;;;;;4931608;28;20824;-70
2023/10/03 06:14:05;;;;;;;12.93;3.70;;;;;;;;;;4929813;28;20126;-70
2023/10/03 06:16:31;;;;;;;16.17;4.00;;;;;;;;;;4946603;28;20032;-72
2023/10/03 06:18:58;;;;;;;10.60;4.32;;;;;;;;;;4929011;28;20105;-70
2023/10/03 06:21:24;;;;;;;10.30;4.28;;;;;;;;;;4933001;28;20039;-71
2023/10/03 06:23:51;;;;;;;11.13;4.45;;;;;;;;;;4929068;28;20125;-72
2023/10/03 06:26:19;;;;;;;13.45;4.47;;;;;;;;;;4931870;28;20043;-72
2023/10/03 06:28:45;;;;;;;11.25;4.53;;;;;;;;;;4931417;28;20035;-72
2023/10/03 06:31:12;;;;;;;10.90;4.65;;;;;;;;;;4931716;28;20038;-71
2023/10/03 06:33:39;;;;;;;11.15;4.50;;;;;;;;;;4928520;28;20129;-72
2023/10/03 06:36:06;;;;;;;11.73;4.75;;;;;;;;;;4927150;28;20379;-71
2023/10/03 06:38:36;;;;;;;14.00;5.28;;;;;;;;;;4931652;28;20031;-70
2023/10/03 06:41:07;;;;;;;14.35;5.80;;;;;;;;;;4926424;28;21283;-71
2023/10/03 06:43:33;;;;;;;14.45;5.18;;;;;;;;;;4930882;28;20471;-71
2023/10/03 06:46:00;;;;;;;11.45;5.07;;;;;;;;;;4926210;28;20052;-71
2023/10/03 06:48:26;;;;;;;11.65;5.30;;;;;;;;;;4943243;28;20030;-73
2023/10/03 06:50:53;;;;;;;11.27;5.35;;;;;;;;;;4925441;28;20032;-71
2023/10/03 06:53:19;;;;;;;11.27;5.05;;;;;;;;;;4936932;28;20043;-71
2023/10/03 06:55:46;;;;;;;15.60;6.18;;;;;;;;;;4947253;28;20035;-71
2023/10/03 06:58:12;;;;;;;13.32;5.20;;;;;;;;;;4949638;28;20031;-71
2023/10/03 07:00:39;;;;;;;11.80;4.93;;;;;;;;;;4929446;28;20158;-71
2023/10/03 07:03:05;;;;;;;11.88;4.80;;;;;;;;;;4926230;28;20451;-71
2023/10/03 07:05:32;;;;;;;10.32;4.55;;;;;;;;;;4929310;28;20033;-71
2023/10/03 07:07:58;;;;;;;10.25;4.68;;;;;;;;;;4926721;28;20077;-70
2023/10/03 07:10:27;;;;;;;11.02;4.78;;;;;;;;;;4949072;28;20474;-73
2023/10/03 07:12:53;;;;;;;12.90;4.90;;;;;;;;;;4929135;28;20185;-71
2023/10/03 07:15:20;;;;;;;11.52;4.30;;;;;;;;;;4931692;28;20136;-71
2023/10/03 07:17:46;;;;;;;14.35;4.55;;;;;;;;;;4945917;28;20031;-72
2023/10/03 07:20:13;;;;;;;14.38;5.25;;;;;;;;;;4934134;28;20039;-71
2023/10/03 07:22:40;;;;;;;17.95;4.88;;;;;;;;;;4931100;28;20478;-71
2023/10/03 07:25:08;;;;;;;10.93;4.40;;;;;;;;;;4925851;28;20356;-71
2023/10/03 07:27:36;;;;;;;18.52;4.78;;;;;;;;;;4927295;28;20023;-71
2023/10/03 07:30:05;;;;;;;10.00;4.38;;;;;;;;;;4937834;28;20383;-71
2023/10/03 07:32:32;;;;;;;13.73;5.05;;;;;;;;;;4929897;28;20420;-71
2023/10/03 07:34:59;;;;;;;12.30;4.38;;;;;;;;;;4927394;28;20027;-71
2023/10/03 07:37:25;;;;;;;11.38;4.80;;;;;;;;;;4936070;28;21255;-71
2023/10/03 07:39:51;;;;;;;10.52;4.32;;;;;;;;;;4927341;28;20028;-72
2023/10/03 07:42:19;;;;;;;11.93;3.95;;;;;;;;;;4930943;28;20149;-72
2023/10/03 07:44:45;;;;;;;12.13;4.70;;;;;;;;;;4929454;28;20282;-71
2023/10/03 07:47:13;;;;;;;13.45;4.47;;;;;;;;;;4932706;28;20031;-71
2023/10/03 07:49:42;;;;;;;13.25;4.03;;;;;;;;;;4936021;28;20023;-71
2023/10/03 07:52:08;;;;;;;10.23;3.85;;;;;;;;;;4928096;28;20035;-71
2023/10/03 07:54:37;;;;;;;10.35;3.63;;;;;;;;;;4928101;28;20283;-70
2023/10/03 07:57:05;;;;;;;12.32;4.07;;;;;;;;;;4928177;28;20781;-72
2023/10/03 07:59:34;;;;;;;13.65;3.67;;;;;;;;;;4948746;28;20049;-71
2023/10/03 08:02:05;;;;;;;10.80;4.03;;;;;;;;;;4930126;28;20034;-72
2023/10/03 08:04:37;;;;;;;11.55;3.78;;;;;;;;;;4925324;28;20526;-71
2023/10/03 08:07:04;;;;;;;10.88;3.33;;;;;;;;;;4926159;28;21161;-71
2023/10/03 08:09:31;;;;;;;14.85;3.92;;;;;;;;;;4929701;28;20553;-72
2023/10/03 08:11:58;;;;;;;12.38;3.90;;;;;;;;;;4924984;28;20040;-71
2023/10/03 08:14:24;;;;;;;12.73;3.70;;;;;;;;;;4933165;28;20050;-71
2023/10/03 08:16:51;;;;;;;10.95;3.42;;;;;;;;;;4930187;28;20038;-71
2023/10/03 08:19:27;;;;;;;10.45;3.65;;;;;;;;;;4947229;28;20122;-71
2023/10/03 08:21:53;;;;;;;8.27;3.50;;;;;;;;;;4924870;28;20123;-71
2023/10/03 08:24:24;;;;;;;17.45;4.00;;;;;;;;;;4946747;28;20027;-71
2023/10/03 08:26:51;;;;;;;9.88;3.30;;;;;;;;;;4913063;28;20035;-72
2023/10/03 08:29:23;;;;;;;9.98;3.20;;;;;;;;;;4929176;28;20043;-71
2023/10/03 08:31:57;;;;;;;8.80;3.53;;;;;;;;;;4944261;28;20303;-72
2023/10/03 08:34:24;;;;;;;9.65;3.17;;;;;;;;;;4928450;28;20118;-70
2023/10/03 08:36:59;;;;;;;8.65;3.28;;;;;;;;;;4926966;28;20066;-70
2023/10/03 08:39:34;;;;;;;11.38;4.18;;;;;;;;;;4931506;28;20042;-70
2023/10/03 08:42:00;;;;;;;9.10;3.70;;;;;;;;;;4942844;28;20285;-72
2023/10/03 08:44:31;;;;;;;9.15;3.40;;;;;;;;;;4928172;28;20534;-71
2023/10/03 08:47:00;;;;;;;10.90;3.80;;;;;;;;;;4927853;28;20499;-72
2023/10/03 08:49:38;;;;;;;13.27;4.10;;;;;;;;;;4929007;28;20061;-71
2023/10/03 08:52:05;;;;;;;11.40;3.58;;;;;;;;;;4926142;28;20130;-71
2023/10/03 08:54:36;;;;;;;11.45;3.72;;;;;;;;;;4925845;28;20019;-72
2023/10/03 08:57:03;;;;;;;10.90;3.72;;;;;;;;;;4927156;28;21371;-72
2023/10/03 08:59:30;;;;;;;9.88;3.40;;;;;;;;;;4946320;28;20035;-71
2023/10/03 09:01:58;;;;;;;12.55;3.63;;;;;;;;;;4929411;28;20046;-72
2023/10/03 09:04:25;;;;;;;13.85;3.30;;;;;;;;;;4927515;28;20071;-72
2023/10/03 09:06:52;;;;;;;12.98;3.55;;;;;;;;;;4926816;28;20667;-72
2023/10/03 09:09:19;;;;;;;9.48;3.17;;;;;;;;;;4928413;28;20027;-72
2023/10/03 09:11:51;;;;;;;17.27;4.55;;;;;;;;;;4924489;28;20027;-72
2023/10/03 09:14:20;;;;;;;10.38;3.22;;;;;;;;;;4929585;28;20532;-72
2023/10/03 09:16:59;;;;;;;10.32;3.22;;;;;;;;;;4938245;28;20130;-72
2023/10/03 09:19:47;;;;;;;9.23;2.90;;;;;;;;;;4929422;28;20024;-72
2023/10/03 09:22:15;;;;;;;8.77;2.85;;;;;;;;;;4929147;28;20536;-72
2023/10/03 09:24:46;;;;;;;8.98;3.38;;;;;;;;;;4929291;28;20194;-72
2023/10/03 09:27:17;;;;;;;12.77;3.45;;;;;;;;;;4928108;28;20035;-72
2023/10/03 09:29:45;;;;;;;8.05;3.13;;;;;;;;;;4925068;28;20031;-72
2023/10/03 09:32:20;;;;;;;10.60;3.30;;;;;;;;;;4930164;28;20031;-72
2023/10/03 09:34:47;;;;;;;;;;;;;;;;;;4925126;28;20027;-72
2023/10/03 09:37:17;;;;;;;10.10;3.28;;;;;;;;;;4930026;28;19929;-72
2023/10/03 09:39:49;;;;;;;9.82;3.50;;;;;;;;;;4941317;28;20410;-71
2023/10/03 09:42:16;;;;;;;10.98;4.03;;;;;;;;;;4930619;28;20732;-72
2023/10/03 09:44:49;;;;;;;7.90;3.20;;;;;;;;;;4933123;28;20031;-71
2023/10/03 09:47:19;;;;;;;8.52;3.10;;;;;;;;;;4929663;28;20035;-71
2023/10/03 09:49:45;;;;;;;8.80;2.70;;;;;;;;;;4931728;28;20054;-71
2023/10/03 09:52:26;;;;;;;9.82;2.70;;;;;;;;;;4928012;28;20035;-71
2023/10/03 09:55:00;;;;;;;7.95;3.15;;;;;;;;;;4940695;28;20568;-71
2023/10/03 09:57:30;;;;;;;8.40;2.72;;;;;;;;;;4946212;28;20392;-71
2023/10/03 09:59:57;;;;;;;8.52;2.95;;;;;;;;;;4940486;28;20027;-71
2023/10/03 10:02:30;;;;;;;8.30;3.03;;;;;;;;;;4925911;28;20253;-71
2023/10/03 10:04:59;;;;;;;7.80;2.92;;;;;;;;;;4942762;28;20062;-71
2023/10/03 10:07:34;;;;;;;7.85;2.72;;;;;;;;;;4945348;28;20384;-71
2023/10/03 10:10:09;;;;;;;10.55;3.42;;;;;;;;;;4928205;28;20035;-71
2023/10/03 10:12:43;;;;;;;;;;;;;;;;;;4934541;28;20055;-72
2023/10/03 10:17:51;;;;;;;8.10;3.50;;;;;;;;;;4931760;28;20219;-72
2023/10/03 10:20:21;;;;;;;10.38;3.28;;;;;;;;;;4933259;28;20027;-71
2023/10/03 10:25:43;;;;;;;9.63;3.92;;;;;;;;;;4933050;28;20828;-71
2023/10/03 10:28:10;;;;;;;11.43;4.57;;;;;;;;;;4933335;28;20493;-71
2023/10/03 10:30:38;;;;;;;10.35;4.28;;;;;;;;;;4932216;28;20321;-72
2023/10/03 10:33:17;;;;;;;11.15;4.20;;;;;;;;;;4943679;28;20039;-72
2023/10/03 10:35:59;;;;;;;7.60;3.20;;;;;;;;;;4932501;28;20059;-71
2023/10/03 10:38:31;;;;;;;11.25;3.53;;;;;;;;;;4932960;28;20031;-72
2023/10/03 10:41:25;;;;;;;7.82;3.40;;;;;;;;;;4927641;28;20081;-71
2023/10/03 10:44:13;;;;;;;9.85;4.35;;;;;;;;;;4942597;28;20419;-71
2023/10/03 10:46:42;;;;;;;9.73;4.53;;;;;;;;;;4934620;28;20031;-72
2023/10/03 10:49:28;;;;;;;10.45;3.92;;;;;;;;;;4932827;28;20433;-71
2023/10/03 10:51:54;;;;;;;;;;;;;;;;;;4930352;28;20510;-72
2023/10/03 10:54:22;;;;;;;13.40;4.10;;;;;;;;;;4930374;28;19914;-72
2023/10/03 10:56:58;;;;;;;9.18;4.25;;;;;;;;;;4929161;28;20246;-72
2023/10/03 10:59:27;;;;;;;10.13;4.60;;;;;;;;;;4933644;28;20119;-72
2023/10/03 11:01:54;;;;;;;13.68;4.70;;;;;;;;;;4931945;28;20114;-71
2023/10/03 11:04:24;;;;;;;8.77;4.05;;;;;;;;;;4933792;28;20118;-72
2023/10/03 11:06:52;;;;;;;11.05;4.72;;;;;;;;;;4931221;28;20047;-73
2023/10/03 11:09:20;;;;;;;10.30;4.22;;;;;;;;;;4949711;28;20035;-74
2023/10/03 11:11:46;;;;;;;9.27;3.97;;;;;;;;;;4927209;28;20327;-74
2023/10/03 11:14:13;;;;;;;14.98;5.15;;;;;;;;;;4930568;28;20023;-72
2023/10/03 11:16:39;;;;;;;12.50;4.88;;;;;;;;;;4928560;28;20036;-74
2023/10/03 11:19:06;;;;;;;10.43;4.20;;;;;;;;;;4926585;28;20023;-73
2023/10/03 11:21:33;;;;;;;15.35;4.50;;;;;;;;;;4930648;28;20023;-72
2023/10/03 11:24:13;;;;;;;13.15;4.95;;;;;;;;;;4927957;28;20258;-74
2023/10/03 11:26:42;;;;;;;10.52;4.10;;;;;;;;;;4940802;28;20477;-74
2023/10/03 11:29:08;;;;;;;11.35;4.70;;;;;;;;;;4930280;28;20870;-74
2023/10/03 11:31:41;;;;;;;14.05;5.28;;;;;;;;;;4933251;28;20119;-73
2023/10/03 11:34:07;;;;;;;11.77;4.40;;;;;;;;;;4940225;28;20031;-74
2023/10/03 11:36:41;;;;;;;11.23;4.57;;;;;;;;;;4931067;28;20093;-73
2023/10/03 11:39:07;;;;;;;28.83;20.83;;;;;;;;;;4920998;28;20046;-73
2023/10/03 11:41:33;;;;;;;23.73;10.05;;;;;;;;;;4947947;28;20406;-73
2023/10/03 11:44:04;;;;;;;14.82;5.72;;;;;;;;;;4925639;28;20088;-73
2023/10/03 11:46:39;;;;;;;11.55;5.53;;;;;;;;;;4927797;28;20226;-74
2023/10/03 11:49:08;;;;;;;11.32;4.93;;;;;;;;;;4921868;28;20565;-73
2023/10/03 11:51:38;;;;;;;13.18;5.53;;;;;;;;;;4931651;28;20489;-74
2023/10/03 11:54:08;;;;;;;10.82;4.80;;;;;;;;;;4924511;28;20027;-73
2023/10/03 11:56:56;;;;;;;11.15;4.70;;;;;;;;;;4929561;28;20031;-73
2023/10/03 11:59:23;;;;;;;11.02;4.93;;;;;;;;;;4928944;28;20033;-72
2023/10/03 12:01:56;;;;;;;10.88;5.18;;;;;;;;;;4929689;28;20031;-73
2023/10/03 12:04:23;;;;;;;12.48;5.03;;;;;;;;;;4929169;28;20059;-73
2023/10/03 12:06:49;;;;;;;10.05;4.60;;;;;;;;;;4931572;28;20039;-74
2023/10/03 12:09:17;;;;;;;11.25;4.82;;;;;;;;;;4948549;28;20126;-72
2023/10/03 12:11:43;;;;;;;10.43;4.75;;;;;;;;;;4943322;28;20031;-72
2023/10/03 12:14:10;;;;;;;11.32;4.93;;;;;;;;;;4930409;28;20035;-72
2023/10/03 12:16:40;;;;;;;10.45;4.68;;;;;;;;;;4940721;28;20066;-73
2023/10/03 12:19:07;;;;;;;10.60;5.03;;;;;;;;;;4923054;28;20482;-73
2023/10/03 12:21:33;;;;;;;10.15;4.75;;;;;;;;;;4927580;28;21501;-73
2023/10/03 12:24:00;;;;;;;11.07;4.97;;;;;;;;;;4919893;28;20063;-73
2023/10/03 12:26:26;;;;;;;8.93;4.55;;;;;;;;;;4922753;28;20332;-72
2023/10/03 12:28:52;;;;;;;11.30;5.07;;;;;;;;;;4920987;28;20215;-73
2023/10/03 12:31:25;;;;;;;11.57;4.60;;;;;;;;;;4940916;28;20553;-73
2023/10/03 12:33:51;;;;;;;9.10;4.45;;;;;;;;;;4923031;28;20050;-73
2023/10/03 12:36:18;;;;;;;9.57;4.43;;;;;;;;;;4939305;28;20031;-73
2023/10/03 12:38:44;;;;;;;8.88;4.00;;;;;;;;;;4922986;28;20732;-74
2023/10/03 12:41:10;;;;;;;10.65;4.68;;;;;;;;;;4938434;28;20031;-74
2023/10/03 12:43:37;;;;;;;10.48;4.95;;;;;;;;;;4925279;28;20269;-74
2023/10/03 12:46:04;;;;;;;10.27;3.65;;;;;;;;;;4918575;28;20704;-74
2023/10/03 12:48:33;;;;;;;12.80;4.53;;;;;;;;;;4923604;28;20118;-74
2023/10/03 12:50:59;;;;;;;9.85;4.13;;;;;;;;;;4921911;28;20059;-72
2023/10/03 12:53:28;;;;;;;10.55;4.43;;;;;;;;;;4922179;28;20035;-72
2023/10/03 12:55:56;;;;;;;11.43;4.28;;;;;;;;;;4923758;28;20027;-73
2023/10/03 12:58:24;;;;;;;10.40;3.65;;;;;;;;;;4923683;28;20042;-73
2023/10/03 13:00:51;;;;;;;8.80;3.67;;;;;;;;;;4935702;28;20241;-72
2023/10/03 13:03:17;;;;;;;9.52;3.90;;;;;;;;;;4924671;28;20037;-73
2023/10/03 13:05:43;;;;;;;10.85;4.15;;;;;;;;;;4921077;28;20027;-73
2023/10/03 13:08:10;;;;;;;19.58;5.80;;;;;;;;;;4923785;28;20589;-73
2023/10/03 13:10:38;;;;;;;24.70;6.18;;;;;;;;;;4926255;28;20308;-73
2023/10/03 13:13:05;;;;;;;15.45;4.60;;;;;;;;;;4921603;28;20481;-73
2023/10/03 13:15:32;;;;;;;11.38;4.20;;;;;;;;;;4938249;28;20065;-74
2023/10/03 13:17:59;;;;;;;15.43;4.50;;;;;;;;;;4936286;28;20094;-74
2023/10/03 13:20:27;;;;;;;13.48;4.18;;;;;;;;;;4923736;28;20062;-74
2023/10/03 13:22:56;;;;;;;10.63;4.43;;;;;;;;;;4923073;28;20039;-74
2023/10/03 13:25:22;;;;;;;9.57;4.13;;;;;;;;;;4920084;28;20157;-75
2023/10/03 13:27:49;;;;;;;11.13;4.05;;;;;;;;;;4922132;28;20046;-73
2023/10/03 13:30:19;;;;;;;12.20;4.22;;;;;;;;;;4923670;28;20325;-74
2023/10/03 13:32:55;;;;;;;10.38;4.10;;;;;;;;;;4920553;28;20214;-74
2023/10/03 13:35:22;;;;;;;14.10;4.70;;;;;;;;;;4923306;28;20045;-74
2023/10/03 13:37:48;;;;;;;11.48;4.50;;;;;;;;;;4920246;28;20106;-74
2023/10/03 13:40:17;;;;;;;16.50;4.45;;;;;;;;;;4923542;28;20047;-74
2023/10/03 13:42:43;;;;;;;9.77;4.00;;;;;;;;;;4920472;28;20027;-74
2023/10/03 13:45:12;;;;;;;9.13;3.90;;;;;;;;;;4927534;28;20039;-74
2023/10/03 13:47:39;;;;;;;10.45;4.20;;;;;;;;;;4926008;28;20061;-73
2023/10/03 13:50:08;;;;;;;9.13;4.00;;;;;;;;;;4923238;28;20307;-73
2023/10/03 13:52:36;;;;;;;9.20;3.88;;;;;;;;;;4927106;28;20026;-73
2023/10/03 13:55:06;;;;;;;9.57;4.00;;;;;;;;;;4925177;28;20081;-74
2023/10/03 13:57:33;;;;;;;9.60;4.18;;;;;;;;;;4942475;28;20034;-74
2023/10/03 14:00:00;;;;;;;10.00;4.13;;;;;;;;;;4923228;28;20382;-74
2023/10/03 14:02:26;;;;;;;11.85;5.35;;;;;;;;;;4941537;28;20170;-73
2023/10/03 14:04:52;;;;;;;10.73;4.57;;;;;;;;;;4939284;28;20314;-74
2023/10/03 14:07:18;;;;;;;10.32;4.65;;;;;;;;;;4925584;28;20511;-74
2023/10/03 14:09:46;;;;;;;9.23;4.28;;;;;;;;;;4924409;28;20046;-75
2023/10/03 14:12:12;;;;;;;10.27;4.40;;;;;;;;;;4924843;28;20804;-74
2023/10/03 14:14:38;;;;;;;12.05;4.68;;;;;;;;;;4925391;28;20370;-72
2023/10/03 14:17:04;;;;;;;11.57;4.57;;;;;;;;;;4922563;28;20059;-73
2023/10/03 14:19:34;;;;;;;13.23;4.60;;;;;;;;;;4924575;28;20633;-74
2023/10/03 14:22:02;;;;;;;14.65;4.43;;;;;;;;;;4923948;28;20293;-73
2023/10/03 14:24:29;;;;;;;10.57;4.50;;;;;;;;;;4942058;28;20363;-73
2023/10/03 14:26:55;;;;;;;10.10;4.38;;;;;;;;;;4923328;28;20027;-74
2023/10/03 14:29:21;;;;;;;11.60;4.07;;;;;;;;;;4925154;28;20042;-72
2023/10/03 14:31:47;;;;;;;13.10;4.25;;;;;;;;;;4922331;28;20502;-73
2023/10/03 14:34:14;;;;;;;11.18;4.40;;;;;;;;;;4925374;28;20794;-72
2023/10/03 14:36:43;;;;;;;11.82;4.35;;;;;;;;;;4927034;28;20031;-72
2023/10/03 14:39:12;;;;;;;10.68;4.40;;;;;;;;;;4928684;28;20035;-73
2023/10/03 14:41:39;;;;;;;9.27;4.30;;;;;;;;;;4925069;28;20027;-74
2023/10/03 14:44:08;;;;;;;11.38;4.47;;;;;;;;;;4937640;28;20034;-74
2023/10/03 14:46:34;;;;;;;10.05;4.50;;;;;;;;;;4921303;28;20035;-74
2023/10/03 14:49:00;;;;;;;13.43;5.13;;;;;;;;;;4937838;28;20034;-74
2023/10/03 14:51:26;;;;;;;12.18;4.47;;;;;;;;;;4924558;28;20462;-74
2023/10/03 14:53:53;;;;;;;9.63;4.38;;;;;;;;;;4923011;28;20429;-73